createdAt,value
2023-06-20T00:00:18.695Z,5.07
2023-06-20T00:05:12.198Z,5.05
2023-06-20T00:10:05.732Z,5.30
2023-06-20T00:14:59.668Z,5.18
2023-06-20T00:19:53.465Z,4.65
2023-06-20T00:24:46.885Z,4.55
2023-06-20T00:29:41.142Z,4.85
2023-06-20T00:34:36.182Z,4.97
2023-06-20T00:39:30.039Z,5.10
2023-06-20T00:44:23.001Z,4.72
2023-06-20T00:49:17.157Z,4.95
2023-06-20T00:54:10.596Z,4.63
2023-06-20T00:59:05.006Z,4.55
2023-06-20T01:03:59.138Z,4.47
2023-06-20T01:08:56.552Z,4.47
2023-06-20T01:13:59.527Z,4.80
2023-06-20T01:19:00.895Z,4.75
2023-06-20T01:24:16.942Z,5.15
2023-06-20T01:29:14.906Z,4.95
2023-06-20T01:34:25.614Z,5.30
2023-06-20T01:39:24.893Z,4.68
2023-06-20T01:44:19.630Z,4.50
2023-06-20T01:49:17.765Z,4.70
2023-06-20T01:54:12.113Z,5.13
2023-06-20T01:59:05.631Z,4.28
2023-06-20T02:04:00.929Z,5.18
2023-06-20T02:08:56.076Z,4.97
2023-06-20T02:13:53.230Z,5.00
2023-06-20T02:18:47.762Z,4.60
2023-06-20T02:23:41.290Z,4.70
2023-06-20T02:28:34.921Z,5.55
2023-06-20T02:33:29.096Z,5.25
2023-06-20T02:38:22.667Z,4.35
2023-06-20T02:43:17.648Z,4.68
2023-06-20T02:48:40.135Z,4.18
2023-06-20T02:53:51.245Z,4.45
2023-06-20T02:58:48.274Z,4.47
2023-06-20T03:03:46.755Z,4.60
2023-06-20T03:08:44.160Z,5.20
2023-06-20T03:13:37.584Z,3.75
2023-06-20T03:18:31.392Z,4.47
2023-06-20T03:23:25.005Z,4.43
2023-06-20T03:28:18.483Z,4.45
2023-06-20T03:33:15.671Z,3.72
2023-06-20T03:38:09.201Z,4.80
2023-06-20T03:43:02.641Z,5.28
2023-06-20T03:47:57.489Z,4.15
2023-06-20T03:52:50.806Z,4.47
2023-06-20T03:57:43.195Z,4.78
2023-06-20T04:02:40.896Z,4.40
2023-06-20T04:07:34.663Z,4.85
2023-06-20T04:12:27.876Z,3.95
2023-06-20T04:17:21.147Z,4.88
2023-06-20T04:22:14.061Z,5.40
2023-06-20T04:27:07.915Z,4.18
2023-06-20T04:32:01.435Z,4.82
2023-06-20T04:36:55.180Z,4.57
2023-06-20T04:41:49.369Z,4.32
2023-06-20T04:46:43.348Z,4.78
2023-06-20T04:51:36.532Z,4.95
2023-06-20T04:56:29.775Z,5.78
2023-06-20T05:01:23.518Z,5.53
2023-06-20T05:06:18.880Z,6.70
2023-06-20T05:11:14.376Z,5.78
2023-06-20T05:16:07.606Z,5.88
2023-06-20T05:21:01.358Z,5.28
2023-06-20T05:25:56.163Z,4.95
2023-06-20T05:30:50.080Z,5.05
2023-06-20T05:35:46.575Z,5.72
2023-06-20T05:40:39.859Z,5.72
2023-06-20T05:45:32.929Z,5.38
2023-06-20T05:50:27.353Z,4.80
2023-06-20T05:55:21.511Z,4.60
2023-06-20T06:00:16.320Z,4.47
2023-06-20T06:05:13.568Z,4.40
2023-06-20T06:10:11.259Z,4.85
2023-06-20T06:15:10.746Z,4.00
2023-06-20T06:20:05.112Z,4.45
2023-06-20T06:24:58.285Z,3.58
2023-06-20T06:29:50.903Z,4.43
2023-06-20T06:34:45.363Z,3.55
2023-06-20T06:39:39.237Z,3.83
2023-06-20T06:44:33.812Z,3.67
2023-06-20T06:49:29.190Z,3.90
2023-06-20T06:54:23.206Z,3.67
2023-06-20T06:59:16.613Z,3.50
2023-06-20T07:04:10.940Z,4.38
2023-06-20T07:09:04.100Z,4.65
2023-06-20T07:13:57.353Z,4.63
2023-06-20T07:18:51.267Z,4.00
2023-06-20T07:23:45.210Z,4.50
2023-06-20T07:28:38.582Z,4.40
2023-06-20T07:33:31.119Z,4.15
2023-06-20T07:38:24.321Z,4.30
2023-06-20T07:43:18.241Z,3.97
2023-06-20T07:48:11.785Z,4.20
2023-06-20T07:53:04.798Z,4.38
2023-06-20T07:57:58.366Z,4.35
2023-06-20T08:02:52.698Z,4.35
2023-06-20T08:07:48.317Z,4.63
2023-06-20T08:17:37.643Z,3.28
2023-06-20T08:22:34.220Z,4.60
2023-06-20T08:27:28.243Z,4.20
2023-06-20T08:32:20.963Z,3.80
2023-06-20T08:37:14.771Z,4.60
2023-06-20T08:42:10.238Z,4.00
2023-06-20T08:47:05.120Z,4.22
2023-06-20T08:52:05.339Z,3.85
2023-06-20T08:56:59.207Z,3.70
2023-06-20T09:01:52.815Z,4.18
2023-06-20T09:06:47.266Z,3.63
2023-06-20T09:11:40.958Z,3.90
2023-06-20T09:16:34.526Z,3.80
2023-06-20T09:21:28.429Z,3.33
2023-06-20T09:26:25.982Z,4.10
2023-06-20T09:31:21.408Z,3.50
2023-06-20T09:36:18.434Z,3.08
2023-06-20T09:41:11.220Z,3.47
2023-06-20T09:46:04.620Z,3.55
2023-06-20T09:50:59.111Z,3.08
2023-06-20T09:55:52.730Z,3.38
2023-06-20T10:00:50.127Z,3.53
2023-06-20T10:05:43.363Z,3.10
2023-06-20T10:10:36.561Z,2.78
2023-06-20T10:15:30.109Z,2.95
2023-06-20T10:20:36.626Z,3.80
2023-06-20T10:25:30.219Z,2.72
2023-06-20T10:30:51.053Z,2.90
2023-06-20T10:35:57.589Z,2.50
2023-06-20T10:41:10.581Z,2.92
2023-06-20T10:46:04.599Z,2.65
2023-06-20T10:51:03.753Z,2.85
2023-06-20T10:55:57.191Z,2.80
2023-06-20T11:00:54.102Z,2.88
2023-06-20T11:05:51.155Z,2.67
2023-06-20T11:10:44.988Z,2.20
2023-06-20T11:15:38.924Z,2.67
2023-06-20T11:20:53.879Z,2.35
2023-06-20T11:30:44.456Z,2.90
2023-06-20T11:35:53.276Z,2.50
2023-06-20T11:40:47.463Z,2.70
2023-06-20T11:45:43.110Z,2.60
2023-06-20T11:50:38.325Z,2.10
2023-06-20T11:55:52.935Z,2.03
2023-06-20T12:00:48.711Z,2.40
2023-06-20T12:05:42.431Z,2.75
2023-06-20T12:10:41.107Z,2.27
2023-06-20T12:15:33.978Z,2.17
2023-06-20T12:20:33.927Z,2.43
2023-06-20T12:25:30.163Z,2.72
2023-06-20T12:30:23.562Z,2.33
2023-06-20T12:35:17.411Z,2.30
2023-06-20T12:40:14.950Z,2.13
2023-06-20T12:45:11.431Z,2.45
2023-06-20T12:50:05.248Z,2.13
2023-06-20T12:55:00.442Z,2.20
2023-06-20T12:59:55.467Z,2.00
2023-06-20T13:04:51.559Z,2.00
2023-06-20T13:09:46.774Z,2.55
2023-06-20T13:14:43.898Z,2.25
2023-06-20T13:19:43.649Z,2.57
2023-06-20T13:24:40.932Z,2.35
2023-06-20T13:29:34.776Z,2.47
2023-06-20T13:34:29.492Z,2.50
2023-06-20T13:39:24.240Z,2.60
2023-06-20T13:44:17.532Z,3.97
2023-06-20T13:49:11.854Z,2.77
2023-06-20T13:54:07.645Z,3.03
2023-06-20T13:59:01.223Z,2.83
2023-06-20T14:03:58.893Z,3.70
2023-06-20T14:08:54.645Z,3.08
2023-06-20T14:13:49.097Z,4.17
2023-06-20T14:18:43.279Z,3.27
2023-06-20T14:23:36.792Z,3.80
2023-06-20T14:28:31.000Z,3.35
2023-06-20T14:33:25.743Z,4.07
2023-06-20T14:38:19.016Z,3.77
2023-06-20T14:43:13.108Z,3.42
2023-06-20T14:48:07.457Z,3.85
2023-06-20T14:53:04.737Z,3.50
2023-06-20T14:57:58.166Z,3.28
2023-06-20T15:02:51.370Z,3.30
2023-06-20T15:07:45.052Z,4.80
2023-06-20T15:12:38.961Z,3.78
2023-06-20T15:17:32.484Z,4.15
2023-06-20T15:22:25.651Z,3.88
2023-06-20T15:27:20.031Z,4.50
2023-06-20T15:32:13.807Z,5.00
2023-06-20T15:37:12.320Z,3.78
2023-06-20T15:42:07.445Z,4.82
2023-06-20T15:47:03.196Z,3.88
2023-06-20T15:51:56.573Z,4.65
2023-06-20T15:56:51.785Z,4.28
2023-06-20T16:01:45.836Z,3.90
2023-06-20T16:06:39.024Z,4.28
2023-06-20T16:11:32.331Z,3.92
2023-06-20T16:16:26.869Z,4.05
2023-06-20T16:21:20.934Z,4.07
2023-06-20T16:26:14.643Z,4.38
2023-06-20T16:31:08.888Z,5.45
2023-06-20T16:36:02.772Z,4.10
2023-06-20T16:40:55.906Z,3.80
2023-06-20T16:45:48.956Z,3.50
2023-06-20T16:50:43.284Z,3.97
2023-06-20T16:55:36.289Z,4.63
2023-06-20T17:00:30.372Z,3.97
2023-06-20T17:05:25.339Z,3.95
2023-06-20T17:10:18.614Z,3.90
2023-06-20T17:15:12.792Z,4.07
2023-06-20T17:20:08.464Z,4.43
2023-06-20T17:25:01.981Z,4.40
2023-06-20T17:29:55.550Z,3.65
2023-06-20T17:34:51.476Z,4.13
2023-06-20T17:39:45.256Z,4.32
2023-06-20T17:44:38.021Z,4.32
2023-06-20T17:49:31.952Z,3.88
2023-06-20T17:54:25.693Z,4.40
2023-06-20T17:59:19.144Z,4.43
2023-06-20T18:04:13.589Z,4.28
2023-06-20T18:09:06.412Z,3.72
2023-06-20T18:14:01.681Z,4.57
2023-06-20T18:18:54.977Z,4.28
2023-06-20T18:23:48.366Z,4.50
2023-06-20T18:28:45.928Z,5.47
2023-06-20T18:33:40.422Z,4.30
2023-06-20T18:38:33.970Z,5.10
2023-06-20T18:43:28.024Z,5.03
2023-06-20T18:48:21.072Z,5.15
2023-06-20T18:53:15.481Z,4.90
2023-06-20T18:58:09.129Z,5.68
2023-06-20T19:03:04.119Z,4.97
2023-06-20T19:07:58.714Z,4.80
2023-06-20T19:12:52.600Z,5.00
2023-06-20T19:17:46.669Z,5.20
2023-06-20T19:22:40.545Z,5.20
2023-06-20T19:27:34.415Z,5.35
2023-06-20T19:32:27.230Z,5.20
2023-06-20T19:37:20.512Z,5.05
2023-06-20T19:42:14.241Z,4.85
2023-06-20T19:47:07.894Z,5.30
2023-06-20T19:52:00.968Z,6.03
2023-06-20T19:56:54.869Z,6.25
2023-06-20T20:01:48.063Z,5.35
2023-06-20T20:06:40.607Z,5.97
2023-06-20T20:11:33.902Z,5.82
2023-06-20T20:16:27.591Z,5.95
2023-06-20T20:21:21.520Z,6.15
2023-06-20T20:26:16.388Z,5.30
2023-06-20T20:31:09.712Z,6.20
2023-06-20T20:36:03.730Z,5.95
2023-06-20T20:40:57.761Z,5.80
2023-06-20T20:45:55.398Z,6.15
2023-06-20T20:50:48.746Z,5.50
2023-06-20T20:55:42.754Z,5.00
2023-06-20T21:00:35.578Z,5.68
2023-06-20T21:05:29.891Z,7.50
2023-06-20T21:10:24.154Z,5.97
2023-06-20T21:15:17.786Z,5.63
2023-06-20T21:20:12.333Z,5.13
2023-06-20T21:25:06.959Z,5.82
2023-06-20T21:30:00.263Z,6.47
2023-06-20T21:34:55.087Z,6.20
2023-06-20T21:39:49.258Z,5.63
2023-06-20T21:44:43.009Z,6.38
2023-06-20T21:49:36.066Z,5.13
2023-06-20T21:54:29.892Z,6.43
2023-06-20T21:59:24.341Z,5.35
2023-06-20T22:04:18.458Z,5.85
2023-06-20T22:09:14.145Z,5.88
2023-06-20T22:14:08.069Z,5.50
2023-06-20T22:19:01.364Z,6.63
2023-06-20T22:23:53.768Z,6.10
2023-06-20T22:28:46.423Z,5.90
2023-06-20T22:33:39.712Z,6.13
2023-06-20T22:38:34.356Z,5.82
2023-06-20T22:43:28.305Z,5.88
2023-06-20T22:48:21.724Z,5.93
2023-06-20T22:53:16.519Z,5.47
2023-06-20T22:58:09.780Z,5.70
2023-06-20T23:03:03.771Z,6.07
2023-06-20T23:07:58.392Z,5.47
2023-06-20T23:12:52.294Z,6.38
2023-06-20T23:17:46.404Z,5.25
2023-06-20T23:22:43.686Z,6.03
2023-06-20T23:27:40.496Z,6.80
2023-06-20T23:32:34.220Z,5.40
2023-06-20T23:37:27.823Z,5.05
2023-06-20T23:42:21.153Z,5.53
2023-06-20T23:47:14.567Z,5.72
2023-06-20T23:52:08.551Z,5.72
2023-06-20T23:57:01.050Z,5.50
